バミューダ の空港の天気 - METARとTAF

バミューダ国際空港 ( TXKF / BDA ) - バミューダ諸島 Ferry Reach
飛行場実況気象(Metar)
観測時間07/22 14:55 ADT (07/22 17:55 UTC)
風向・風速南東 7m/s
視程10km以上
天気現象周辺でしゅう雨
全天の4割程度の雲 雲底高度 640m
全天の4割程度の雲 雲底高度 1070m
全天の8割程度の雲 雲底高度 9140m
気温28℃
湿度74%
気圧1023hPa
METARTXKF 221755Z 13013KT 9999 VCSH SCT021TCU SCT035 BKN300 28/23 Q1023 RMK TCU SE + DSNT NW
過去の天気等 Google飛行場航空写真 Wunderground天気予報

過去48時間のMETAR

飛行場予報(TAF)
発表時間: 7/22 14:31 ADT (7/22 17:31 UTC)
予報対象時間: 22日15時 ADT ~ 23日15時 ADT
風向・風速東南東 7m/s
視程10km以上
天気現象周辺でしゅう雨
全天の4割程度の雲 雲底高度 610m
23日0時 ADT ~ 23日11時 ADT に 確率 40% で一時的に
視程3200m
天気現象しゅう雨
全天の8割程度の雲 雲底高度 430m
23日6時 ADT ~ 23日11時 ADT に 確率 30% で一時的に
風向・風速南東 10m/s 瞬間風速 15m/s
視程1600m
天気現象雷雨
全天の8割程度の積乱雲 雲底高度 270m
TAF TXKF 221731Z 2218/2318 12013KT 9999 VCSH SCT020
PROB40 TEMPO 2303/2314 3200 SHRA BKN014
PROB30 TEMPO 2309/2314 13020G30KT 1600 TSRA BKN009CB